Time;durP1;ratioP1;P1;durP2;ratioP2;P2;SDS_P1;SDS_P2;PMS_P1;PMS_P2;Temp;Humidity;BMP_temperature;BMP_pressure;BME280_temperature;BME280_humidity;BME280_pressure;Samples;Min_cycle;Max_cycle;Signal;HPM_P1;HPM_P2
2022/05/24 00:01:36;;;;;;;8.82;4.68;;;;;;;8.78;36.68;98274.44;5090927;27;20382;-73
2022/05/24 00:04:01;;;;;;;6.68;3.92;;;;;;;8.79;37.23;98274.28;5047679;27;20134;-72
2022/05/24 00:06:30;;;;;;;16.10;4.75;;;;;;;8.80;36.90;98273.31;5071950;27;20107;-73
2022/05/24 00:08:54;;;;;;;10.52;3.90;;;;;;;8.81;36.69;98274.13;5095691;27;20055;-65
2022/05/24 00:11:19;;;;;;;6.63;4.32;;;;;;;8.82;36.76;98265.19;5072402;27;20035;-69
2022/05/24 00:13:44;;;;;;;12.13;6.05;;;;;;;8.83;36.77;98265.06;5075791;27;20035;-68
2022/05/24 00:16:09;;;;;;;13.27;4.90;;;;;;;8.86;36.39;98264.81;5075974;27;20079;-63
2022/05/24 00:18:34;;;;;;;9.57;4.28;;;;;;;8.89;36.79;98263.72;5074835;27;20146;-64
2022/05/24 00:21:01;;;;;;;8.15;3.80;;;;;;;8.92;37.39;98268.75;5086352;27;20145;-64
2022/05/24 00:23:28;;;;;;;7.60;4.88;;;;;;;8.92;36.96;98274.06;5082728;27;20043;-65
2022/05/24 00:25:55;;;;;;;12.30;4.40;;;;;;;8.94;36.13;98270.28;5059754;28;20035;-64
2022/05/24 00:28:22;;;;;;;13.57;4.75;;;;;;;8.93;35.63;98275.75;5043078;28;20050;-64
2022/05/24 00:30:48;;;;;;;9.93;5.15;;;;;;;8.92;35.68;98266.91;5077224;27;20035;-64
2022/05/24 00:33:14;;;;;;;14.00;5.40;;;;;;;8.93;34.78;98273.94;5042788;28;20047;-63
2022/05/24 00:35:40;;;;;;;9.32;4.88;;;;;;;8.94;35.03;98272.94;5060235;28;20035;-63
2022/05/24 00:38:09;;;;;;;7.05;3.95;;;;;;;8.95;34.87;98266.66;5078254;28;20046;-63
2022/05/24 00:40:40;;;;;;;12.25;4.78;;;;;;;8.96;35.38;98267.50;5077388;28;20044;-63
2022/05/24 00:43:14;;;;;;;9.35;4.75;;;;;;;9.01;34.72;98273.28;5033971;28;20078;-64
2022/05/24 00:45:47;;;;;;;12.25;4.85;;;;;;;9.03;34.53;98274.81;5077742;28;20075;-63
2022/05/24 00:48:22;;;;;;;12.32;5.25;;;;;;;9.06;33.74;98274.56;5059482;28;20089;-64
2022/05/24 00:50:49;;;;;;;;;;;;;;;9.20;34.14;98277.81;5077566;28;20049;-67
2022/05/24 00:53:51;;;;;;;10.90;3.95;;;;;;;9.19;34.05;98276.13;5043072;28;20126;-68
2022/05/24 00:56:44;;;;;;;11.82;4.55;;;;;;;9.18;34.11;98269.97;4994603;28;20038;-65
2022/05/24 00:59:18;;;;;;;7.53;3.20;;;;;;;9.13;34.10;98272.22;4955535;28;20105;-64
2022/05/24 01:01:47;;;;;;;5.93;4.03;;;;;;;9.12;33.98;98272.34;4947064;28;20164;-64
2022/05/24 01:04:14;;;;;;;7.85;3.90;;;;;;;9.13;34.29;98282.00;4956209;28;20050;-65
2022/05/24 01:06:42;;;;;;;5.90;3.15;;;;;;;9.13;34.72;98271.38;4957411;28;20154;-65
2022/05/24 01:09:11;;;;;;;7.38;4.43;;;;;;;9.15;34.55;98272.06;4955394;28;20046;-65
2022/05/24 01:11:39;;;;;;;7.18;3.83;;;;;;;9.14;34.07;98268.59;4958475;28;20101;-64
2022/05/24 01:14:07;;;;;;;6.95;3.78;;;;;;;9.14;34.74;98271.25;4955789;28;20042;-65
2022/05/24 01:16:32;;;;;;;6.38;3.78;;;;;;;9.14;35.21;98270.41;4955561;28;20042;-64
2022/05/24 01:18:56;;;;;;;12.02;4.18;;;;;;;9.13;34.52;98272.22;4938263;28;20069;-64
2022/05/24 01:21:22;;;;;;;7.10;3.60;;;;;;;9.12;35.23;98267.88;4953536;28;20577;-64
2022/05/24 01:24:15;;;;;;;7.05;4.13;;;;;;;9.18;34.98;98258.50;4963182;28;20501;-64
2022/05/24 01:26:54;;;;;;;5.15;3.58;;;;;;;9.20;35.38;98265.38;4967681;28;20121;-63
2022/05/24 01:29:23;;;;;;;5.68;3.53;;;;;;;9.17;35.93;98270.09;4958705;28;20499;-63
2022/05/24 01:37:17;;;;;;;7.82;3.67;;;;;;;9.19;35.37;98262.84;5074482;28;20051;-74
2022/05/24 01:39:45;;;;;;;12.63;4.10;;;;;;;9.21;35.49;98268.88;5035803;28;20788;-73
2022/05/24 01:42:11;;;;;;;5.88;3.72;;;;;;;9.20;35.19;98277.81;5052546;28;20486;-73
2022/05/24 01:44:48;;;;;;;8.70;4.38;;;;;;;9.26;35.56;98275.47;5058674;28;20040;-75
2022/05/24 01:47:15;;;;;;;6.18;4.15;;;;;;;9.21;35.00;98272.38;5076717;28;20055;-74
2022/05/24 01:49:47;;;;;;;10.13;3.95;;;;;;;9.23;34.51;98278.41;5058877;28;20039;-73
2022/05/24 01:52:11;;;;;;;6.82;3.35;;;;;;;9.19;34.86;98274.31;5076786;28;20413;-75
2022/05/24 01:54:40;;;;;;;4.93;3.58;;;;;;;9.21;35.08;98275.03;5054439;28;20828;-70
2022/05/24 01:57:31;;;;;;;9.65;4.03;;;;;;;9.26;34.25;98280.78;5048282;28;20154;-72
2022/05/24 01:59:57;;;;;;;10.20;4.68;;;;;;;9.25;34.66;98283.59;5041342;28;20047;-71
2022/05/24 02:02:23;;;;;;;6.15;3.47;;;;;;;9.29;34.42;98282.34;5057746;28;20528;-72
2022/05/24 02:04:47;;;;;;;4.53;3.65;;;;;;;9.31;34.67;98281.22;5078171;28;20546;-72
2022/05/24 02:07:19;;;;;;;7.28;3.95;;;;;;;9.36;35.47;98289.66;5078213;28;20552;-71
2022/05/24 02:09:47;;;;;;;6.65;3.58;;;;;;;9.37;35.37;98274.50;5044635;28;20482;-72
2022/05/24 02:12:18;;;;;;;9.57;3.72;;;;;;;9.44;35.53;98276.50;5074577;28;20039;-72
2022/05/24 02:14:49;;;;;;;10.05;3.88;;;;;;;9.48;35.46;98285.88;5052765;28;20027;-74
2022/05/24 02:17:20;;;;;;;7.72;3.65;;;;;;;9.50;35.21;98274.28;5074399;28;20043;-74
2022/05/24 02:19:54;;;;;;;6.03;4.35;;;;;;;9.54;35.16;98273.88;5067568;28;20043;-74
2022/05/24 02:22:22;;;;;;;7.18;4.07;;;;;;;9.58;34.56;98280.63;5050842;28;20105;-73
2022/05/24 02:25:02;;;;;;;7.88;3.25;;;;;;;9.65;34.23;98284.41;5059738;28;20362;-70
2022/05/24 02:27:28;;;;;;;9.15;3.80;;;;;;;9.67;34.16;98287.78;5058123;28;20059;-72
2022/05/24 02:29:53;;;;;;;7.88;3.50;;;;;;;9.71;34.59;98294.47;5041118;28;20073;-73
2022/05/24 02:32:19;;;;;;;6.95;4.18;;;;;;;9.72;34.15;98293.50;5041005;28;20108;-73
2022/05/24 02:34:43;;;;;;;4.53;3.38;;;;;;;9.74;33.53;98288.91;5057544;28;20118;-69
2022/05/24 02:37:08;;;;;;;4.80;3.70;;;;;;;9.76;34.25;98286.09;5075804;28;20122;-69
2022/05/24 02:41:28;;;;;;;7.13;4.00;;;;;;;9.80;33.82;98293.69;5075894;28;20043;-74
2022/05/24 02:42:17;;;;;;;7.60;3.50;;;;;;;9.86;33.69;98302.09;5075857;28;20070;-75
2022/05/24 02:44:42;;;;;;;8.88;3.88;;;;;;;9.90;34.29;98287.53;5075693;28;20047;-73
2022/05/24 02:47:07;;;;;;;5.05;3.30;;;;;;;9.96;33.85;98295.78;5057641;28;20035;-73
2022/05/24 02:49:31;;;;;;;4.63;3.13;;;;;;;10.03;33.21;98294.28;5076879;28;20050;-73
2022/05/24 02:51:56;;;;;;;6.15;3.80;;;;;;;10.12;33.27;98301.41;5058748;28;20078;-71
2022/05/24 02:54:21;;;;;;;7.43;3.22;;;;;;;10.19;33.29;98288.41;5058777;28;20051;-72
2022/05/24 02:56:46;;;;;;;6.55;3.75;;;;;;;10.25;33.69;98289.69;5059856;28;20036;-72
2022/05/24 02:59:11;;;;;;;6.82;3.67;;;;;;;10.31;33.01;98291.78;5059362;28;20085;-70
2022/05/24 03:01:36;;;;;;;5.15;3.72;;;;;;;10.37;33.21;98285.91;5060027;28;20748;-71
2022/05/24 03:04:01;;;;;;;6.65;4.10;;;;;;;10.46;33.06;98288.56;5061509;28;20362;-71
2022/05/24 03:06:26;;;;;;;6.15;3.90;;;;;;;10.54;32.99;98283.34;5065491;28;20044;-74
2022/05/24 03:14:21;;;;;;;9.60;3.80;;;;;;;10.73;32.19;98289.59;5047386;28;20040;-72
2022/05/24 03:16:48;;;;;;;5.07;3.72;;;;;;;10.77;32.84;98293.69;5066527;28;20035;-73
2022/05/24 03:19:15;;;;;;;8.10;3.63;;;;;;;10.83;32.53;98296.63;5052684;28;20102;-69
2022/05/24 03:21:41;;;;;;;5.78;3.25;;;;;;;10.88;32.44;98296.19;5072321;28;20035;-71
2022/05/24 03:24:06;;;;;;;6.70;3.55;;;;;;;10.95;32.41;98294.59;5057928;28;20129;-66
2022/05/24 03:26:30;;;;;;;6.45;4.32;;;;;;;10.99;32.34;98296.00;5056977;28;20043;-69
2022/05/24 03:28:57;;;;;;;7.63;3.83;;;;;;;11.00;31.82;98303.03;5023962;28;20462;-68
2022/05/24 03:31:22;;;;;;;5.57;3.72;;;;;;;11.03;32.25;98302.75;5079705;28;20040;-68
2022/05/24 03:33:47;;;;;;;8.07;3.67;;;;;;;11.03;31.95;98302.75;5081364;28;20142;-69
2022/05/24 03:36:12;;;;;;;5.68;3.35;;;;;;;10.99;31.99;98293.34;5062298;28;20031;-68
2022/05/24 03:38:37;;;;;;;8.27;3.67;;;;;;;10.95;32.58;98286.59;5063297;28;20066;-67
2022/05/24 03:41:02;;;;;;;5.15;3.22;;;;;;;10.94;32.29;98292.94;5081443;28;20073;-67
2022/05/24 03:43:26;;;;;;;4.50;3.40;;;;;;;10.90;32.96;98283.56;5064201;28;20071;-67
2022/05/24 03:46:06;;;;;;;9.30;3.90;;;;;;;10.99;33.39;98293.34;5069337;28;20077;-68
2022/05/24 03:48:32;;;;;;;6.60;3.55;;;;;;;10.95;32.58;98294.59;5083726;28;20047;-67
2022/05/24 03:50:56;;;;;;;8.77;4.00;;;;;;;10.93;32.29;98275.28;5084261;28;20388;-69
2022/05/24 03:53:21;;;;;;;10.77;4.55;;;;;;;10.85;32.15;98275.97;5082392;28;20052;-69
2022/05/24 03:55:46;;;;;;;6.85;3.42;;;;;;;10.82;32.39;98291.44;5064190;28;20035;-70
2022/05/24 03:58:11;;;;;;;8.10;3.47;;;;;;;10.79;32.59;98291.72;5082479;28;20540;-71
2022/05/24 04:00:40;;;;;;;6.03;3.40;;;;;;;10.78;33.06;98303.38;5082408;28;20043;-70
2022/05/24 04:03:06;;;;;;;9.88;3.42;;;;;;;10.77;32.62;98289.19;5081659;28;20075;-71
2022/05/24 04:05:31;;;;;;;5.80;3.53;;;;;;;10.77;32.49;98296.34;5063566;28;20055;-69
2022/05/24 04:07:57;;;;;;;7.90;3.75;;;;;;;10.80;32.63;98309.41;5047049;28;20050;-69
2022/05/24 04:10:26;;;;;;;12.75;4.05;;;;;;;10.81;32.61;98295.09;5082341;28;20130;-70
2022/05/24 04:12:51;;;;;;;8.93;3.67;;;;;;;10.83;32.45;98293.97;5063862;28;20054;-69
2022/05/24 04:15:16;;;;;;;8.02;3.85;;;;;;;10.85;32.52;98291.13;5046893;28;20039;-70
2022/05/24 04:17:41;;;;;;;11.52;3.53;;;;;;;10.92;32.30;98294.91;5081541;28;20087;-69
2022/05/24 04:20:07;;;;;;;5.13;3.05;;;;;;;11.01;31.76;98296.72;5081497;28;20505;-70
2022/05/24 04:22:33;;;;;;;6.28;3.45;;;;;;;11.11;31.22;98286.84;5081452;28;20118;-71
2022/05/24 04:24:57;;;;;;;9.40;3.28;;;;;;;11.21;31.57;98292.97;5028985;28;20055;-71
2022/05/24 04:27:23;;;;;;;4.80;3.15;;;;;;;11.32;31.65;98291.09;5045891;28;20039;-70
2022/05/24 04:29:51;;;;;;;7.00;3.75;;;;;;;11.42;31.53;98286.56;5063276;28;20043;-70
2022/05/24 04:32:16;;;;;;;6.50;3.35;;;;;;;11.44;31.04;98287.25;5063198;28;20059;-68
2022/05/24 04:34:41;;;;;;;8.60;3.78;;;;;;;11.51;30.37;98286.50;5062935;28;20043;-69
2022/05/24 04:37:07;;;;;;;6.35;3.60;;;;;;;11.60;30.02;98280.31;5062952;28;20126;-69
2022/05/24 04:39:32;;;;;;;5.35;3.33;;;;;;;11.68;29.56;98270.69;5062802;28;20055;-68
2022/05/24 04:44:43;;;;;;;8.65;2.72;;;;;;;11.96;29.22;98277.72;5077269;28;20100;-69
2022/05/24 04:47:08;;;;;;;12.35;4.03;;;;;;;12.15;29.40;98279.41;5079635;28;20501;-68
2022/05/24 04:49:41;;;;;;;8.02;3.50;;;;;;;12.20;28.55;98282.44;5078174;28;20047;-68
2022/05/24 04:52:11;;;;;;;17.52;4.03;;;;;;;12.29;28.83;98284.22;5060493;28;20525;-69
2022/05/24 04:54:41;;;;;;;11.23;5.20;;;;;;;12.34;28.43;98272.06;5059518;28;20482;-68
2022/05/24 04:57:07;;;;;;;4.60;2.97;;;;;;;12.34;28.10;98273.88;5078016;28;20456;-69
2022/05/24 04:59:31;;;;;;;5.78;3.13;;;;;;;12.34;27.68;98268.53;5059571;28;20391;-69
2022/05/24 05:01:56;;;;;;;7.55;3.70;;;;;;;12.43;27.95;98264.94;5059635;28;20410;-71
2022/05/24 05:04:23;;;;;;;5.35;3.22;;;;;;;12.62;27.73;98258.59;5077896;28;20528;-69
2022/05/24 05:06:47;;;;;;;4.88;3.00;;;;;;;12.89;27.39;98261.09;5042403;28;20130;-69
2022/05/24 05:09:13;;;;;;;6.88;2.90;;;;;;;13.25;27.01;98266.34;5059348;28;20130;-69
2022/05/24 05:11:38;;;;;;;7.10;3.05;;;;;;;13.57;25.96;98260.28;5059702;28;20054;-69
2022/05/24 05:14:03;;;;;;;6.57;3.00;;;;;;;13.74;25.36;98252.16;5041886;28;20391;-70
2022/05/24 05:16:28;;;;;;;7.68;3.22;;;;;;;13.77;24.56;98253.63;5059107;28;20402;-69
2022/05/24 05:18:55;;;;;;;6.03;3.25;;;;;;;13.86;25.03;98260.72;5077146;28;20530;-68
2022/05/24 05:21:20;;;;;;;6.97;3.28;;;;;;;14.03;24.58;98254.38;5042600;28;20495;-69
2022/05/24 05:23:44;;;;;;;7.30;3.22;;;;;;;14.11;24.80;98257.06;5077055;28;20058;-70
2022/05/24 05:26:09;;;;;;;4.93;3.08;;;;;;;14.18;24.99;98249.22;5059169;28;20043;-68
2022/05/24 05:28:34;;;;;;;2.67;2.47;;;;;;;14.31;24.49;98259.44;5058860;28;20075;-69
2022/05/24 05:31:17;;;;;;;5.50;3.10;;;;;;;14.51;24.11;98250.09;5058883;28;20125;-69
2022/05/24 05:33:43;;;;;;;10.18;2.92;;;;;;;14.79;24.23;98253.22;5041921;28;20119;-69
2022/05/24 05:36:08;;;;;;;4.07;3.08;;;;;;;15.02;23.66;98247.97;5041997;28;20035;-70
2022/05/24 05:38:33;;;;;;;8.38;3.17;;;;;;;15.25;22.78;98259.66;5058735;28;20047;-71
2022/05/24 05:41:01;;;;;;;12.88;3.45;;;;;;;15.57;22.81;98248.84;5077265;28;20579;-71
2022/05/24 05:43:25;;;;;;;6.03;2.97;;;;;;;15.76;22.40;98257.47;5077711;28;20050;-70
2022/05/24 05:45:55;;;;;;;3.28;2.53;;;;;;;15.89;22.32;98255.06;5077274;28;20047;-69
2022/05/24 05:48:20;;;;;;;5.70;2.95;;;;;;;16.31;22.02;98247.38;5076859;28;20070;-69
2022/05/24 05:50:47;;;;;;;5.03;2.78;;;;;;;16.85;22.08;98247.25;5058983;28;20427;-70
2022/05/24 05:53:11;;;;;;;4.82;3.10;;;;;;;17.24;21.42;98248.88;5058698;28;20150;-71
2022/05/24 05:55:36;;;;;;;8.82;3.05;;;;;;;17.42;20.88;98243.94;5041478;28;20127;-70
2022/05/24 05:58:02;;;;;;;4.88;3.15;;;;;;;17.62;20.66;98254.97;5060342;28;20040;-70
2022/05/24 06:00:27;;;;;;;4.38;2.83;;;;;;;17.63;20.77;98249.44;5063457;28;20043;-70
2022/05/24 06:02:52;;;;;;;6.05;3.45;;;;;;;17.56;20.33;98250.34;5062869;28;20043;-71
2022/05/24 06:05:16;;;;;;;6.75;2.97;;;;;;;17.40;20.31;98245.97;5029764;28;20039;-70
2022/05/24 06:07:41;;;;;;;6.28;3.05;;;;;;;17.17;20.38;98248.78;5082278;28;20051;-69
2022/05/24 06:10:09;;;;;;;10.70;3.45;;;;;;;17.09;20.88;98248.03;5063790;28;20559;-72
2022/05/24 06:12:33;;;;;;;7.32;2.83;;;;;;;17.00;20.79;98253.50;5063545;28;20528;-71
2022/05/24 06:14:58;;;;;;;12.25;3.40;;;;;;;17.01;20.99;98257.03;5079122;28;20601;-71
2022/05/24 06:17:25;;;;;;;7.25;3.47;;;;;;;17.14;21.11;98251.03;5058978;28;20046;-70
2022/05/24 06:19:50;;;;;;;9.45;3.63;;;;;;;17.18;20.38;98249.59;5060504;28;20044;-71
2022/05/24 06:22:14;;;;;;;5.05;3.13;;;;;;;17.29;21.02;98249.13;5081126;28;20050;-72
2022/05/24 06:24:39;;;;;;;5.68;3.03;;;;;;;17.48;20.77;98245.06;5070471;27;20062;-71
2022/05/24 06:27:05;;;;;;;11.25;3.97;;;;;;;17.67;20.08;98250.72;5063035;27;20467;-73
2022/05/24 06:29:35;;;;;;;6.70;3.63;;;;;;;17.89;20.14;98242.69;5064029;27;20041;-73
2022/05/24 06:32:01;;;;;;;9.35;3.70;;;;;;;17.95;20.47;98233.81;5061272;27;20115;-73
2022/05/24 06:34:26;;;;;;;5.38;3.58;;;;;;;17.85;20.57;98236.00;5077910;27;20073;-72
2022/05/24 06:36:51;;;;;;;9.60;3.50;;;;;;;17.65;20.55;98242.00;5078267;27;20499;-72
2022/05/24 06:39:15;;;;;;;8.48;3.75;;;;;;;17.51;20.44;98245.50;5096312;27;20039;-73
2022/05/24 06:41:40;;;;;;;9.55;3.92;;;;;;;17.29;20.11;98232.97;5096573;27;20039;-72
2022/05/24 06:44:05;;;;;;;7.15;4.07;;;;;;;17.18;19.81;98225.38;5096471;27;20049;-72
2022/05/24 06:46:31;;;;;;;7.72;3.72;;;;;;;17.09;19.51;98239.94;5096425;27;20077;-71
2022/05/24 06:48:55;;;;;;;5.38;3.53;;;;;;;16.86;19.21;98234.63;5077928;27;20047;-72
2022/05/24 06:51:22;;;;;;;8.77;4.05;;;;;;;16.55;18.43;98238.25;5078202;27;20039;-73
2022/05/24 06:53:48;;;;;;;14.88;4.07;;;;;;;16.23;18.17;98241.22;5079516;27;20047;-72
2022/05/24 06:56:13;;;;;;;17.98;6.10;;;;;;;15.95;18.68;98252.47;5089073;27;20043;-73
2022/05/24 06:58:38;;;;;;;8.48;4.13;;;;;;;15.79;18.66;98254.44;5081040;27;20391;-73
2022/05/24 07:03:59;;;;;;;9.20;4.55;;;;;;;15.34;19.39;98268.53;5015565;28;20793;-70
2022/05/24 07:06:24;;;;;;;9.32;3.97;;;;;;;15.10;20.02;98277.50;5014984;28;20067;-69
2022/05/24 07:08:50;;;;;;;6.72;3.63;;;;;;;14.99;20.25;98280.56;5015494;28;20140;-69
2022/05/24 07:11:17;;;;;;;7.85;3.53;;;;;;;14.88;21.11;98279.91;5016174;28;20166;-70
2022/05/24 07:13:42;;;;;;;9.98;3.80;;;;;;;14.86;21.62;98279.22;4999033;28;20036;-71
2022/05/24 07:16:08;;;;;;;7.50;2.95;;;;;;;14.79;21.61;98275.53;5015590;28;20170;-71
2022/05/24 07:18:34;;;;;;;5.60;3.42;;;;;;;14.81;21.33;98286.94;5032284;28;20091;-70
2022/05/24 07:21:00;;;;;;;6.43;2.95;;;;;;;14.78;21.90;98273.88;5015660;28;20056;-68
2022/05/24 07:23:24;;;;;;;7.45;3.47;;;;;;;14.68;21.60;98281.22;5015570;28;20040;-68
2022/05/24 07:25:50;;;;;;;5.20;3.00;;;;;;;14.53;21.84;98288.31;5035322;28;20044;-68
2022/05/24 07:28:18;;;;;;;6.97;2.67;;;;;;;14.46;21.62;98284.59;5038198;28;20048;-68
2022/05/24 07:30:43;;;;;;;3.28;2.50;;;;;;;14.44;22.45;98279.44;5053918;28;20074;-68
2022/05/24 07:33:08;;;;;;;7.82;2.97;;;;;;;14.56;21.89;98279.91;5035144;28;20048;-69
2022/05/24 07:35:32;;;;;;;7.20;2.92;;;;;;;14.59;21.95;98287.63;5035503;28;20040;-69
2022/05/24 07:37:57;;;;;;;7.03;3.35;;;;;;;14.85;21.85;98288.28;5035187;28;20130;-69
2022/05/24 07:45:54;;;;;;;4.35;2.72;;;;;;;15.81;21.57;98308.81;5042975;28;20061;-68
2022/05/24 07:48:22;;;;;;;9.02;3.28;;;;;;;15.93;21.60;98308.25;5045826;28;20043;-74
2022/05/24 07:50:47;;;;;;;7.93;3.00;;;;;;;16.20;21.54;98301.56;5045509;28;20063;-68
2022/05/24 07:53:12;;;;;;;8.70;4.10;;;;;;;16.74;21.17;98304.22;5065105;28;20040;-69
2022/05/24 07:55:37;;;;;;;7.20;3.50;;;;;;;17.09;21.49;98300.03;5061724;28;20050;-69
2022/05/24 07:58:02;;;;;;;6.75;3.58;;;;;;;17.14;22.12;98300.31;5043274;28;20031;-70
2022/05/24 08:00:27;;;;;;;5.80;3.47;;;;;;;16.91;22.00;98304.94;5059851;28;20040;-69
2022/05/24 08:02:53;;;;;;;9.00;3.70;;;;;;;16.53;22.56;98320.16;5025979;28;20544;-69
2022/05/24 08:05:19;;;;;;;8.35;3.85;;;;;;;16.13;23.25;98326.66;5059573;28;20044;-69
2022/05/24 08:07:49;;;;;;;11.57;3.80;;;;;;;15.76;23.50;98321.97;5041064;28;20057;-68
2022/05/24 08:10:13;;;;;;;8.75;3.65;;;;;;;15.50;24.31;98324.88;5043817;28;20101;-68
2022/05/24 08:12:39;;;;;;;6.40;3.70;;;;;;;15.26;24.30;98331.16;5085533;28;20067;-69
2022/05/24 08:15:04;;;;;;;7.35;3.53;;;;;;;15.03;24.64;98341.75;5062890;28;20039;-69
2022/05/24 08:17:29;;;;;;;6.97;3.60;;;;;;;14.89;24.90;98340.63;5059038;28;20032;-69
2022/05/24 08:19:54;;;;;;;10.65;3.83;;;;;;;14.75;25.17;98354.69;5061978;28;20050;-69
2022/05/24 08:22:19;;;;;;;5.57;3.10;;;;;;;14.57;25.07;98359.34;5062135;28;20043;-68
2022/05/24 08:24:44;;;;;;;9.85;3.92;;;;;;;14.40;26.21;98371.06;5066803;28;20063;-70
2022/05/24 08:27:11;;;;;;;19.10;4.03;;;;;;;14.25;26.86;98368.16;5062021;28;20039;-70
2022/05/24 08:29:35;;;;;;;11.50;3.40;;;;;;;14.09;27.30;98377.00;5084086;28;20055;-69
2022/05/24 08:32:00;;;;;;;9.63;3.80;;;;;;;13.98;27.70;98377.31;5064191;28;20048;-69
2022/05/24 08:34:25;;;;;;;10.15;3.95;;;;;;;13.80;29.01;98384.56;5080108;28;20115;-69
2022/05/24 08:36:49;;;;;;;10.55;3.83;;;;;;;13.62;28.75;98391.84;5079586;28;20047;-70
2022/05/24 08:39:14;;;;;;;7.72;3.05;;;;;;;13.37;29.60;98398.91;5081219;28;20092;-67
2022/05/24 08:42:12;;;;;;;7.03;3.90;;;;;;;13.45;29.06;98406.97;5080286;28;20043;-69
2022/05/24 08:50:13;;;;;;;6.90;3.08;;;;;;;13.15;29.90;98421.66;5066741;28;20035;-69
2022/05/24 08:52:44;;;;;;;7.05;3.53;;;;;;;13.07;30.06;98427.78;5067262;28;20360;-69
2022/05/24 08:55:11;;;;;;;6.45;3.10;;;;;;;12.95;30.53;98428.16;5078734;28;20122;-69
2022/05/24 08:57:54;;;;;;;6.47;3.15;;;;;;;12.90;31.26;98430.44;5060697;28;20071;-69
2022/05/24 09:00:24;;;;;;;7.65;3.38;;;;;;;12.71;31.52;98436.81;5081193;28;20047;-69
2022/05/24 09:02:49;;;;;;;19.05;5.30;;;;;;;12.66;31.31;98434.56;5030056;28;20051;-70
2022/05/24 09:05:27;;;;;;;7.90;3.33;;;;;;;12.78;31.57;98437.84;5066994;28;20042;-68
2022/05/24 09:08:10;;;;;;;8.18;3.45;;;;;;;12.68;31.83;98445.97;5083467;28;20054;-74
2022/05/24 09:10:46;;;;;;;8.15;3.60;;;;;;;12.76;31.71;98452.38;5082879;28;20490;-70
2022/05/24 09:13:37;;;;;;;10.25;3.45;;;;;;;12.72;32.42;98457.19;5042906;28;20044;-70
2022/05/24 09:16:09;;;;;;;8.68;2.90;;;;;;;12.68;32.33;98461.16;4979680;28;20053;-69
2022/05/24 09:19:04;;;;;;;9.52;3.40;;;;;;;12.63;32.26;98458.97;4995291;28;20061;-69
2022/05/24 09:21:31;;;;;;;9.50;3.17;;;;;;;12.55;32.57;98466.03;4978666;28;20580;-69
2022/05/24 09:24:10;;;;;;;5.10;3.08;;;;;;;12.52;32.88;98471.69;4994630;28;20087;-70
2022/05/24 09:27:07;;;;;;;11.40;3.33;;;;;;;12.54;32.41;98483.06;4978313;28;20627;-69
2022/05/24 09:29:32;;;;;;;4.13;3.40;;;;;;;12.32;33.21;98471.78;4977694;28;20112;-70
2022/05/24 09:32:03;;;;;;;6.07;3.00;;;;;;;12.22;33.83;98478.19;4994647;28;20053;-69
2022/05/24 09:34:30;;;;;;;6.25;3.40;;;;;;;12.19;33.80;98475.81;4994840;28;20057;-69
2022/05/24 09:37:00;;;;;;;7.63;3.03;;;;;;;12.35;33.28;98476.00;4978278;28;20045;-69
2022/05/24 09:39:44;;;;;;;4.65;2.90;;;;;;;12.57;33.12;98486.28;4978319;28;20064;-69
2022/05/24 09:42:30;;;;;;;5.25;3.03;;;;;;;12.57;33.49;98499.66;4994695;28;20041;-69
2022/05/24 09:45:03;;;;;;;9.40;3.45;;;;;;;12.68;33.11;98499.44;4994605;28;20195;-69
2022/05/24 09:47:32;;;;;;;7.88;4.00;;;;;;;12.71;33.54;98509.84;4978148;28;20614;-70
2022/05/24 09:50:24;;;;;;;10.82;4.03;;;;;;;12.80;32.93;98513.44;4994499;28;20049;-70
2022/05/24 09:53:12;;;;;;;8.77;3.50;;;;;;;12.85;32.61;98513.00;4990834;28;20043;-69
2022/05/24 09:55:59;;;;;;;8.38;3.65;;;;;;;12.84;32.81;98519.34;5041767;28;20498;-72
2022/05/24 09:58:49;;;;;;;5.18;3.05;;;;;;;12.63;33.58;98525.81;5058430;28;20126;-69
2022/05/24 10:01:39;;;;;;;4.63;3.20;;;;;;;12.54;33.29;98526.69;5025067;28;20462;-69
2022/05/24 10:04:16;;;;;;;5.25;3.53;;;;;;;12.30;33.99;98529.88;5058190;28;20051;-69
2022/05/24 10:06:49;;;;;;;5.13;2.58;;;;;;;12.10;34.32;98524.78;5076714;28;20122;-70
2022/05/24 10:09:20;;;;;;;7.00;3.63;;;;;;;12.04;34.82;98531.56;5076375;28;20051;-70
2022/05/24 10:11:56;;;;;;;5.90;3.42;;;;;;;11.97;34.65;98525.09;5041675;28;20043;-70
2022/05/24 10:14:48;;;;;;;12.43;3.63;;;;;;;12.14;34.43;98529.69;5076225;28;20502;-70
2022/05/24 10:17:27;;;;;;;3.58;2.63;;;;;;;12.23;33.37;98539.50;5024484;28;20122;-70
2022/05/24 10:20:30;;;;;;;6.45;3.47;;;;;;;12.28;34.10;98536.38;5057854;28;20055;-70
2022/05/24 10:23:03;;;;;;;8.98;3.22;;;;;;;12.21;34.61;98535.28;5057882;28;20058;-70
2022/05/24 10:26:09;;;;;;;7.90;3.80;;;;;;;12.32;33.55;98543.94;5056525;27;20054;-70
2022/05/24 10:28:42;;;;;;;13.23;3.63;;;;;;;12.32;34.18;98541.28;5078359;27;20739;-69
2022/05/24 10:31:32;;;;;;;6.97;3.22;;;;;;;12.37;34.10;98548.88;5078252;27;20062;-69
2022/05/24 10:40:25;;;;;;;5.55;3.17;;;;;;;12.53;34.24;98549.06;5077263;28;20067;-68
2022/05/24 10:42:49;;;;;;;7.32;3.38;;;;;;;12.61;33.60;98557.19;5061130;27;20456;-69
2022/05/24 10:45:18;;;;;;;9.38;2.92;;;;;;;12.66;34.10;98562.06;5077951;27;20481;-69
2022/05/24 10:47:50;;;;;;;7.07;3.20;;;;;;;12.68;33.93;98568.97;5061230;27;20041;-71
2022/05/24 10:50:36;;;;;;;10.02;3.20;;;;;;;12.72;33.57;98580.22;5096689;27;20074;-72
2022/05/24 10:53:14;;;;;;;7.05;4.07;;;;;;;12.58;33.66;98570.84;5078301;27;20038;-73
2022/05/24 10:55:45;;;;;;;11.95;3.88;;;;;;;12.42;34.17;98577.81;5078002;27;20043;-72
2022/05/24 10:58:15;;;;;;;12.70;3.72;;;;;;;12.40;34.88;98586.00;5061011;27;20035;-72
2022/05/24 11:01:02;;;;;;;7.47;3.30;;;;;;;12.56;34.54;98575.50;5061320;27;20045;-71
2022/05/24 11:03:34;;;;;;;6.57;2.83;;;;;;;12.83;33.52;98576.50;5063391;27;20510;-71
2022/05/24 11:06:08;;;;;;;13.57;3.75;;;;;;;12.96;33.86;98571.63;5077591;27;20129;-71
2022/05/24 11:08:54;;;;;;;5.20;2.78;;;;;;;13.13;34.08;98576.16;5077410;27;20069;-71
2022/05/24 11:11:18;;;;;;;11.10;3.67;;;;;;;13.15;33.43;98587.56;5060607;27;20046;-71
2022/05/24 11:13:53;;;;;;;11.55;3.75;;;;;;;13.08;33.89;98592.69;5043431;27;20043;-71
2022/05/24 11:16:27;;;;;;;;;;;;;;;13.17;32.61;98596.31;5077867;27;20374;-71
2022/05/24 11:18:52;;;;;;;8.70;3.10;;;;;;;12.96;33.46;98590.34;5077827;27;19945;-71
2022/05/24 11:21:17;;;;;;;4.07;2.88;;;;;;;12.87;34.08;98596.56;5060188;27;20091;-71
2022/05/24 11:23:48;;;;;;;7.65;3.30;;;;;;;12.83;34.36;98597.88;5060278;27;20047;-71
2022/05/24 11:26:15;;;;;;;8.15;2.85;;;;;;;12.87;33.98;98575.19;5060079;28;20046;-70
2022/05/24 11:28:47;;;;;;;5.63;2.97;;;;;;;12.92;33.79;98583.63;5077234;27;20054;-70
2022/05/24 11:31:44;;;;;;;11.30;3.30;;;;;;;12.96;32.91;98593.88;5078996;28;20051;-71
2022/05/24 11:34:26;;;;;;;5.00;2.95;;;;;;;13.00;33.31;98602.41;5087529;28;20125;-70
2022/05/24 11:37:13;;;;;;;11.50;3.22;;;;;;;13.13;33.04;98602.91;5046630;28;20039;-67
2022/05/24 11:39:42;;;;;;;4.00;2.72;;;;;;;13.02;33.20;98606.63;5034851;28;20097;-63
2022/05/24 11:42:22;;;;;;;5.88;2.55;;;;;;;13.00;33.61;98611.28;5054979;28;20109;-67
2022/05/24 11:44:47;;;;;;;9.27;3.30;;;;;;;12.65;33.67;98593.31;5062724;28;20067;-69
2022/05/24 11:47:34;;;;;;;6.10;2.90;;;;;;;12.51;33.70;98611.69;5067352;28;20105;-66
2022/05/24 11:50:00;;;;;;;9.15;2.97;;;;;;;12.30;34.28;98618.06;5074113;28;20451;-67
2022/05/24 11:52:45;;;;;;;7.07;3.03;;;;;;;12.27;34.24;98617.53;5052290;28;20101;-65
2022/05/24 11:55:11;;;;;;;;;;;;;;;12.28;33.24;98613.88;5059761;28;20076;-64
2022/05/24 11:57:42;;;;;;;11.55;4.20;;;;;;;12.04;34.95;98619.72;5052232;28;20370;-65
2022/05/24 12:00:10;;;;;;;8.35;3.50;;;;;;;11.93;34.64;98615.38;5044963;28;20047;-65
2022/05/24 12:07:54;;;;;;;6.63;2.95;;;;;;;12.00;34.72;98631.66;5067785;28;20568;-66
2022/05/24 12:08:38;;;;;;;10.65;4.10;;;;;;;12.07;34.35;98631.94;5062613;28;20044;-64
2022/05/24 12:11:06;;;;;;;6.00;2.25;;;;;;;11.98;34.74;98630.94;5043719;28;20101;-64
2022/05/24 12:13:33;;;;;;;7.05;2.35;;;;;;;11.95;34.37;98645.47;5058917;28;20051;-66
2022/05/24 12:16:02;;;;;;;7.05;1.83;;;;;;;12.02;34.01;98636.88;5040901;28;20521;-67
2022/05/24 12:18:43;;;;;;;9.18;2.42;;;;;;;12.17;33.47;98641.63;5063518;27;20047;-66
2022/05/24 12:21:08;;;;;;;11.77;1.80;;;;;;;12.19;33.45;98644.97;5034153;28;20067;-66
2022/05/24 12:23:35;;;;;;;3.60;2.22;;;;;;;12.25;33.71;98652.44;5056769;28;20529;-69